sensor_id;sensor_type;location;lat;lon;timestamp;temperature;humidity
34837;DHT22;21053;50.848;4.652;2024-01-30T00:00:00;9.30;99.90
34837;DHT22;21053;50.848;4.652;2024-01-30T00:02:28;9.20;99.90
34837;DHT22;21053;50.848;4.652;2024-01-30T00:04:56;9.20;99.90
34837;DHT22;21053;50.848;4.652;2024-01-30T00:07:22;9.20;99.90
34837;DHT22;21053;50.848;4.652;2024-01-30T00:09:52;9.20;99.90
34837;DHT22;21053;50.848;4.652;2024-01-30T00:12:21;9.20;99.90
34837;DHT22;21053;50.848;4.652;2024-01-30T00:14:49;9.30;99.90
34837;DHT22;21053;50.848;4.652;2024-01-30T00:17:15;9.30;99.90
34837;DHT22;21053;50.848;4.652;2024-01-30T00:19:42;9.40;99.90
34837;DHT22;21053;50.848;4.652;2024-01-30T00:22:10;9.40;99.90
34837;DHT22;21053;50.848;4.652;2024-01-30T00:24:35;9.40;99.90
34837;DHT22;21053;50.848;4.652;2024-01-30T00:27:03;9.40;99.90
34837;DHT22;21053;50.848;4.652;2024-01-30T00:29:30;9.40;99.90
34837;DHT22;21053;50.848;4.652;2024-01-30T00:32:00;9.40;99.90
34837;DHT22;21053;50.848;4.652;2024-01-30T00:34:27;9.50;99.90
34837;DHT22;21053;50.848;4.652;2024-01-30T00:36:55;9.60;99.90
34837;DHT22;21053;50.848;4.652;2024-01-30T00:39:24;9.60;99.90
34837;DHT22;21053;50.848;4.652;2024-01-30T00:41:51;9.60;99.90
34837;DHT22;21053;50.848;4.652;2024-01-30T00:44:20;9.70;99.90
34837;DHT22;21053;50.848;4.652;2024-01-30T00:46:46;9.80;99.90
34837;DHT22;21053;50.848;4.652;2024-01-30T00:49:11;9.80;99.90
34837;DHT22;21053;50.848;4.652;2024-01-30T00:51:40;9.90;99.90
34837;DHT22;21053;50.848;4.652;2024-01-30T00:54:06;10.00;99.90
34837;DHT22;21053;50.848;4.652;2024-01-30T00:56:32;10.00;99.90
34837;DHT22;21053;50.848;4.652;2024-01-30T00:58:59;10.00;99.90
34837;DHT22;21053;50.848;4.652;2024-01-30T01:01:25;10.10;99.90
34837;DHT22;21053;50.848;4.652;2024-01-30T01:03:52;10.10;99.90
34837;DHT22;21053;50.848;4.652;2024-01-30T01:06:17;10.10;99.90
34837;DHT22;21053;50.848;4.652;2024-01-30T01:08:43;10.00;99.90
34837;DHT22;21053;50.848;4.652;2024-01-30T01:11:10;10.10;99.90
34837;DHT22;21053;50.848;4.652;2024-01-30T01:13:37;10.10;99.90
34837;DHT22;21053;50.848;4.652;2024-01-30T01:16:05;10.20;99.90
34837;DHT22;21053;50.848;4.652;2024-01-30T01:18:34;10.20;99.90
34837;DHT22;21053;50.848;4.652;2024-01-30T01:21:03;10.30;99.90
34837;DHT22;21053;50.848;4.652;2024-01-30T01:23:29;10.30;99.90
34837;DHT22;21053;50.848;4.652;2024-01-30T01:25:54;10.30;99.90
34837;DHT22;21053;50.848;4.652;2024-01-30T01:28:21;10.40;99.90
34837;DHT22;21053;50.848;4.652;2024-01-30T01:30:47;10.30;99.90
34837;DHT22;21053;50.848;4.652;2024-01-30T01:33:16;10.40;99.90
34837;DHT22;21053;50.848;4.652;2024-01-30T01:35:45;10.40;99.90
34837;DHT22;21053;50.848;4.652;2024-01-30T01:38:14;10.50;99.90
34837;DHT22;21053;50.848;4.652;2024-01-30T01:40:42;10.50;99.90
34837;DHT22;21053;50.848;4.652;2024-01-30T01:43:09;10.60;99.90
34837;DHT22;21053;50.848;4.652;2024-01-30T01:45:36;10.60;99.90
34837;DHT22;21053;50.848;4.652;2024-01-30T01:48:03;10.50;99.90
34837;DHT22;21053;50.848;4.652;2024-01-30T01:50:30;10.50;99.90
34837;DHT22;21053;50.848;4.652;2024-01-30T01:52:57;10.50;99.90
34837;DHT22;21053;50.848;4.652;2024-01-30T01:55:25;10.60;99.90
34837;DHT22;21053;50.848;4.652;2024-01-30T01:57:53;10.60;99.90
34837;DHT22;21053;50.848;4.652;2024-01-30T02:00:20;10.70;99.90
34837;DHT22;21053;50.848;4.652;2024-01-30T02:02:49;10.70;99.90
34837;DHT22;21053;50.848;4.652;2024-01-30T02:05:17;10.70;99.90
34837;DHT22;21053;50.848;4.652;2024-01-30T02:07:45;10.70;99.90
34837;DHT22;21053;50.848;4.652;2024-01-30T02:10:13;10.60;99.90
34837;DHT22;21053;50.848;4.652;2024-01-30T02:12:40;10.50;99.90
34837;DHT22;21053;50.848;4.652;2024-01-30T02:15:08;10.60;99.90
34837;DHT22;21053;50.848;4.652;2024-01-30T02:17:34;10.50;99.90
34837;DHT22;21053;50.848;4.652;2024-01-30T02:20:01;10.60;99.90
34837;DHT22;21053;50.848;4.652;2024-01-30T02:22:28;10.50;99.90
34837;DHT22;21053;50.848;4.652;2024-01-30T02:24:54;10.60;99.90
34837;DHT22;21053;50.848;4.652;2024-01-30T02:27:19;10.60;99.90
34837;DHT22;21053;50.848;4.652;2024-01-30T02:29:47;10.60;99.90
34837;DHT22;21053;50.848;4.652;2024-01-30T02:32:13;10.60;99.90
34837;DHT22;21053;50.848;4.652;2024-01-30T02:34:42;10.50;99.90
34837;DHT22;21053;50.848;4.652;2024-01-30T02:37:11;10.50;99.90
34837;DHT22;21053;50.848;4.652;2024-01-30T02:39:39;10.50;99.90
34837;DHT22;21053;50.848;4.652;2024-01-30T02:42:06;10.40;99.90
34837;DHT22;21053;50.848;4.652;2024-01-30T02:44:35;10.50;99.90
34837;DHT22;21053;50.848;4.652;2024-01-30T02:47:02;10.50;99.90
34837;DHT22;21053;50.848;4.652;2024-01-30T02:49:28;10.60;99.90
34837;DHT22;21053;50.848;4.652;2024-01-30T02:51:54;10.60;99.90
34837;DHT22;21053;50.848;4.652;2024-01-30T02:54:26;10.60;99.90
34837;DHT22;21053;50.848;4.652;2024-01-30T02:56:55;10.60;99.90
34837;DHT22;21053;50.848;4.652;2024-01-30T02:59:23;10.70;99.90
34837;DHT22;21053;50.848;4.652;2024-01-30T03:01:48;10.70;99.90
34837;DHT22;21053;50.848;4.652;2024-01-30T03:04:16;10.60;99.90
34837;DHT22;21053;50.848;4.652;2024-01-30T03:06:48;10.60;99.90
34837;DHT22;21053;50.848;4.652;2024-01-30T03:09:17;10.60;99.90
34837;DHT22;21053;50.848;4.652;2024-01-30T03:11:46;10.60;99.90
34837;DHT22;21053;50.848;4.652;2024-01-30T03:14:15;10.60;99.90
34837;DHT22;21053;50.848;4.652;2024-01-30T03:16:41;10.60;99.90
34837;DHT22;21053;50.848;4.652;2024-01-30T03:19:07;10.50;99.90
34837;DHT22;21053;50.848;4.652;2024-01-30T03:21:34;10.50;99.90
34837;DHT22;21053;50.848;4.652;2024-01-30T03:24:03;10.50;99.90
34837;DHT22;21053;50.848;4.652;2024-01-30T03:26:30;10.50;99.90
34837;DHT22;21053;50.848;4.652;2024-01-30T03:29:02;10.60;99.90
34837;DHT22;21053;50.848;4.652;2024-01-30T03:31:27;10.60;99.90
34837;DHT22;21053;50.848;4.652;2024-01-30T03:33:56;10.50;99.90
34837;DHT22;21053;50.848;4.652;2024-01-30T03:36:24;10.40;99.90
34837;DHT22;21053;50.848;4.652;2024-01-30T03:38:50;10.40;99.90
34837;DHT22;21053;50.848;4.652;2024-01-30T03:41:15;10.40;99.90
34837;DHT22;21053;50.848;4.652;2024-01-30T03:43:41;10.40;99.90
34837;DHT22;21053;50.848;4.652;2024-01-30T03:46:07;10.40;99.90
34837;DHT22;21053;50.848;4.652;2024-01-30T03:48:33;10.50;99.90
34837;DHT22;21053;50.848;4.652;2024-01-30T03:50:59;10.40;99.90
34837;DHT22;21053;50.848;4.652;2024-01-30T03:55:52;10.50;99.90
34837;DHT22;21053;50.848;4.652;2024-01-30T03:58:20;10.40;99.90
34837;DHT22;21053;50.848;4.652;2024-01-30T04:00:46;10.60;99.90
34837;DHT22;21053;50.848;4.652;2024-01-30T04:03:14;10.60;99.90
34837;DHT22;21053;50.848;4.652;2024-01-30T04:05:43;10.60;99.90
34837;DHT22;21053;50.848;4.652;2024-01-30T04:08:10;10.70;99.90
34837;DHT22;21053;50.848;4.652;2024-01-30T04:10:37;10.70;99.90
34837;DHT22;21053;50.848;4.652;2024-01-30T04:13:06;10.70;99.90
34837;DHT22;21053;50.848;4.652;2024-01-30T04:15:33;10.60;99.90
34837;DHT22;21053;50.848;4.652;2024-01-30T04:17:58;10.80;99.90
34837;DHT22;21053;50.848;4.652;2024-01-30T04:20:24;10.80;99.90
34837;DHT22;21053;50.848;4.652;2024-01-30T04:23:00;10.80;99.90
34837;DHT22;21053;50.848;4.652;2024-01-30T04:25:27;10.70;99.90
34837;DHT22;21053;50.848;4.652;2024-01-30T04:27:53;10.80;99.90
34837;DHT22;21053;50.848;4.652;2024-01-30T04:30:19;10.80;99.90
34837;DHT22;21053;50.848;4.652;2024-01-30T04:32:45;11.00;99.90
34837;DHT22;21053;50.848;4.652;2024-01-30T04:35:13;11.00;99.90
34837;DHT22;21053;50.848;4.652;2024-01-30T04:37:40;11.00;99.90
34837;DHT22;21053;50.848;4.652;2024-01-30T04:40:08;11.00;99.90
34837;DHT22;21053;50.848;4.652;2024-01-30T04:42:37;11.00;99.90
34837;DHT22;21053;50.848;4.652;2024-01-30T04:45:03;11.00;99.90
34837;DHT22;21053;50.848;4.652;2024-01-30T04:47:28;11.10;99.90
34837;DHT22;21053;50.848;4.652;2024-01-30T04:49:56;11.10;99.90
34837;DHT22;21053;50.848;4.652;2024-01-30T04:52:25;11.20;99.90
34837;DHT22;21053;50.848;4.652;2024-01-30T04:54:51;11.20;99.90
34837;DHT22;21053;50.848;4.652;2024-01-30T04:57:19;11.20;99.90
34837;DHT22;21053;50.848;4.652;2024-01-30T04:59:48;11.20;99.90
34837;DHT22;21053;50.848;4.652;2024-01-30T05:02:15;11.20;99.90
34837;DHT22;21053;50.848;4.652;2024-01-30T05:04:41;11.20;99.90
34837;DHT22;21053;50.848;4.652;2024-01-30T05:07:13;11.20;99.90
34837;DHT22;21053;50.848;4.652;2024-01-30T05:09:40;11.20;99.90
34837;DHT22;21053;50.848;4.652;2024-01-30T05:12:07;11.20;99.90
34837;DHT22;21053;50.848;4.652;2024-01-30T05:14:33;11.40;99.90
34837;DHT22;21053;50.848;4.652;2024-01-30T05:16:59;11.30;99.90
34837;DHT22;21053;50.848;4.652;2024-01-30T05:19:26;11.30;99.90
34837;DHT22;21053;50.848;4.652;2024-01-30T05:21:52;11.20;99.90
34837;DHT22;21053;50.848;4.652;2024-01-30T05:24:18;11.20;99.90
34837;DHT22;21053;50.848;4.652;2024-01-30T05:26:47;11.20;99.90
34837;DHT22;21053;50.848;4.652;2024-01-30T05:29:19;11.20;99.90
34837;DHT22;21053;50.848;4.652;2024-01-30T05:31:45;11.20;99.90
34837;DHT22;21053;50.848;4.652;2024-01-30T05:34:17;11.30;99.90
34837;DHT22;21053;50.848;4.652;2024-01-30T05:36:42;11.20;99.90
34837;DHT22;21053;50.848;4.652;2024-01-30T05:39:08;11.20;99.90
34837;DHT22;21053;50.848;4.652;2024-01-30T05:41:34;11.20;99.90
34837;DHT22;21053;50.848;4.652;2024-01-30T05:44:01;11.30;99.90
34837;DHT22;21053;50.848;4.652;2024-01-30T05:46:26;11.30;99.90
34837;DHT22;21053;50.848;4.652;2024-01-30T05:48:52;11.30;99.90
34837;DHT22;21053;50.848;4.652;2024-01-30T05:51:18;11.20;99.90
34837;DHT22;21053;50.848;4.652;2024-01-30T05:53:44;11.30;99.90
34837;DHT22;21053;50.848;4.652;2024-01-30T05:56:11;11.30;99.90
34837;DHT22;21053;50.848;4.652;2024-01-30T05:58:37;11.30;99.90
34837;DHT22;21053;50.848;4.652;2024-01-30T06:01:08;11.30;99.90
34837;DHT22;21053;50.848;4.652;2024-01-30T06:03:37;11.30;99.90
34837;DHT22;21053;50.848;4.652;2024-01-30T06:06:05;11.30;99.90
34837;DHT22;21053;50.848;4.652;2024-01-30T06:08:34;11.40;99.90
34837;DHT22;21053;50.848;4.652;2024-01-30T06:11:00;11.40;99.90
34837;DHT22;21053;50.848;4.652;2024-01-30T06:13:29;11.40;99.90
34837;DHT22;21053;50.848;4.652;2024-01-30T06:16:00;11.40;99.90
34837;DHT22;21053;50.848;4.652;2024-01-30T06:18:27;11.20;99.90
34837;DHT22;21053;50.848;4.652;2024-01-30T06:23:24;11.30;99.90
34837;DHT22;21053;50.848;4.652;2024-01-30T06:25:54;11.30;99.90
34837;DHT22;21053;50.848;4.652;2024-01-30T06:28:22;11.30;99.90
34837;DHT22;21053;50.848;4.652;2024-01-30T06:30:48;11.20;99.90
34837;DHT22;21053;50.848;4.652;2024-01-30T06:33:16;11.20;99.90
34837;DHT22;21053;50.848;4.652;2024-01-30T06:35:45;11.20;99.90
34837;DHT22;21053;50.848;4.652;2024-01-30T06:38:14;11.20;99.90
34837;DHT22;21053;50.848;4.652;2024-01-30T06:40:41;11.20;99.90
34837;DHT22;21053;50.848;4.652;2024-01-30T06:43:09;11.20;99.90
34837;DHT22;21053;50.848;4.652;2024-01-30T06:45:35;11.10;99.90
34837;DHT22;21053;50.848;4.652;2024-01-30T06:48:04;11.10;99.90
34837;DHT22;21053;50.848;4.652;2024-01-30T06:50:30;11.10;99.90
34837;DHT22;21053;50.848;4.652;2024-01-30T06:52:56;11.00;99.90
34837;DHT22;21053;50.848;4.652;2024-01-30T06:55:21;11.10;99.90
34837;DHT22;21053;50.848;4.652;2024-01-30T06:57:50;11.10;99.90
34837;DHT22;21053;50.848;4.652;2024-01-30T07:00:19;11.00;99.90
34837;DHT22;21053;50.848;4.652;2024-01-30T07:05:18;11.30;99.90
34837;DHT22;21053;50.848;4.652;2024-01-30T07:07:47;11.30;99.90
34837;DHT22;21053;50.848;4.652;2024-01-30T07:10:13;11.20;99.90
34837;DHT22;21053;50.848;4.652;2024-01-30T07:12:42;11.20;99.90
34837;DHT22;21053;50.848;4.652;2024-01-30T07:15:09;11.20;99.90
34837;DHT22;21053;50.848;4.652;2024-01-30T07:17:41;11.30;99.90
34837;DHT22;21053;50.848;4.652;2024-01-30T07:20:07;11.30;99.90
34837;DHT22;21053;50.848;4.652;2024-01-30T07:22:35;11.20;99.90
34837;DHT22;21053;50.848;4.652;2024-01-30T07:25:04;11.10;99.90
34837;DHT22;21053;50.848;4.652;2024-01-30T07:27:31;11.10;99.90
34837;DHT22;21053;50.848;4.652;2024-01-30T07:30:00;11.10;99.90
34837;DHT22;21053;50.848;4.652;2024-01-30T07:32:26;11.10;99.90
34837;DHT22;21053;50.848;4.652;2024-01-30T07:34:55;11.10;99.90
34837;DHT22;21053;50.848;4.652;2024-01-30T07:37:24;11.10;99.90
34837;DHT22;21053;50.848;4.652;2024-01-30T07:39:53;11.10;99.90
34837;DHT22;21053;50.848;4.652;2024-01-30T07:42:18;11.00;99.90
34837;DHT22;21053;50.848;4.652;2024-01-30T07:44:47;11.00;99.90
34837;DHT22;21053;50.848;4.652;2024-01-30T07:47:16;11.10;99.90
34837;DHT22;21053;50.848;4.652;2024-01-30T07:49:45;11.20;99.90
34837;DHT22;21053;50.848;4.652;2024-01-30T07:52:12;11.30;99.90
34837;DHT22;21053;50.848;4.652;2024-01-30T07:54:40;11.30;99.90
34837;DHT22;21053;50.848;4.652;2024-01-30T07:57:08;11.50;99.90
34837;DHT22;21053;50.848;4.652;2024-01-30T07:59:35;11.50;99.90
34837;DHT22;21053;50.848;4.652;2024-01-30T08:02:01;11.60;99.90
34837;DHT22;21053;50.848;4.652;2024-01-30T08:04:28;11.60;99.90
34837;DHT22;21053;50.848;4.652;2024-01-30T08:06:54;11.70;99.90
34837;DHT22;21053;50.848;4.652;2024-01-30T08:09:21;11.80;99.90
34837;DHT22;21053;50.848;4.652;2024-01-30T08:11:47;11.80;99.90
34837;DHT22;21053;50.848;4.652;2024-01-30T08:14:14;11.90;99.90
34837;DHT22;21053;50.848;4.652;2024-01-30T08:16:43;12.00;99.90
34837;DHT22;21053;50.848;4.652;2024-01-30T08:19:14;12.00;99.90
34837;DHT22;21053;50.848;4.652;2024-01-30T08:21:43;12.00;99.90
34837;DHT22;21053;50.848;4.652;2024-01-30T08:24:08;12.00;99.90
34837;DHT22;21053;50.848;4.652;2024-01-30T08:26:35;12.00;99.90
34837;DHT22;21053;50.848;4.652;2024-01-30T08:29:03;12.10;99.90
34837;DHT22;21053;50.848;4.652;2024-01-30T08:31:30;12.10;99.90
34837;DHT22;21053;50.848;4.652;2024-01-30T08:33:57;12.20;99.90
34837;DHT22;21053;50.848;4.652;2024-01-30T08:36:27;12.20;99.90
34837;DHT22;21053;50.848;4.652;2024-01-30T08:38:56;12.20;99.90
34837;DHT22;21053;50.848;4.652;2024-01-30T08:41:22;12.20;99.90
34837;DHT22;21053;50.848;4.652;2024-01-30T08:43:49;12.30;99.90
34837;DHT22;21053;50.848;4.652;2024-01-30T08:46:18;12.40;99.90
34837;DHT22;21053;50.848;4.652;2024-01-30T08:51:13;12.40;99.90
34837;DHT22;21053;50.848;4.652;2024-01-30T08:54:02;12.40;99.90
34837;DHT22;21053;50.848;4.652;2024-01-30T08:56:31;12.40;99.90
34837;DHT22;21053;50.848;4.652;2024-01-30T08:59:00;12.50;99.90
34837;DHT22;21053;50.848;4.652;2024-01-30T09:01:29;12.50;99.90
34837;DHT22;21053;50.848;4.652;2024-01-30T09:03:56;12.60;99.90
34837;DHT22;21053;50.848;4.652;2024-01-30T09:06:25;12.80;99.90
34837;DHT22;21053;50.848;4.652;2024-01-30T09:08:56;13.00;99.90
34837;DHT22;21053;50.848;4.652;2024-01-30T09:11:23;13.10;99.90
34837;DHT22;21053;50.848;4.652;2024-01-30T09:13:50;13.10;99.90
34837;DHT22;21053;50.848;4.652;2024-01-30T09:16:19;13.20;99.90
34837;DHT22;21053;50.848;4.652;2024-01-30T09:18:46;13.30;99.90
34837;DHT22;21053;50.848;4.652;2024-01-30T09:21:14;13.20;99.90
34837;DHT22;21053;50.848;4.652;2024-01-30T09:23:40;13.30;99.90
34837;DHT22;21053;50.848;4.652;2024-01-30T09:26:08;13.20;99.90
34837;DHT22;21053;50.848;4.652;2024-01-30T09:28:40;13.20;99.90
34837;DHT22;21053;50.848;4.652;2024-01-30T09:31:17;13.10;99.90
34837;DHT22;21053;50.848;4.652;2024-01-30T09:33:45;13.20;99.90
34837;DHT22;21053;50.848;4.652;2024-01-30T09:36:14;13.10;99.90
34837;DHT22;21053;50.848;4.652;2024-01-30T09:38:42;13.10;99.90
34837;DHT22;21053;50.848;4.652;2024-01-30T09:41:09;13.10;99.90
34837;DHT22;21053;50.848;4.652;2024-01-30T09:43:38;13.10;99.90
34837;DHT22;21053;50.848;4.652;2024-01-30T09:46:12;13.10;99.90
34837;DHT22;21053;50.848;4.652;2024-01-30T09:48:42;13.10;99.90
34837;DHT22;21053;50.848;4.652;2024-01-30T09:51:09;13.10;99.90
34837;DHT22;21053;50.848;4.652;2024-01-30T09:53:52;12.90;99.90
34837;DHT22;21053;50.848;4.652;2024-01-30T09:56:22;13.00;99.90
34837;DHT22;21053;50.848;4.652;2024-01-30T09:58:50;12.90;99.90
34837;DHT22;21053;50.848;4.652;2024-01-30T10:01:18;12.90;99.90
34837;DHT22;21053;50.848;4.652;2024-01-30T10:03:51;12.90;99.90
34837;DHT22;21053;50.848;4.652;2024-01-30T10:06:18;13.00;99.90
34837;DHT22;21053;50.848;4.652;2024-01-30T10:08:49;13.00;99.90
34837;DHT22;21053;50.848;4.652;2024-01-30T10:11:21;12.90;99.90
34837;DHT22;21053;50.848;4.652;2024-01-30T10:13:50;12.90;99.90
34837;DHT22;21053;50.848;4.652;2024-01-30T10:16:19;13.10;99.90
34837;DHT22;21053;50.848;4.652;2024-01-30T10:18:46;13.10;99.90
34837;DHT22;21053;50.848;4.652;2024-01-30T10:21:13;13.10;99.90
34837;DHT22;21053;50.848;4.652;2024-01-30T10:23:43;13.00;99.90
34837;DHT22;21053;50.848;4.652;2024-01-30T10:26:11;13.10;99.90
34837;DHT22;21053;50.848;4.652;2024-01-30T10:29:52;13.40;99.90
34837;DHT22;21053;50.848;4.652;2024-01-30T10:32:20;13.30;99.90
34837;DHT22;21053;50.848;4.652;2024-01-30T10:34:49;13.30;99.90
34837;DHT22;21053;50.848;4.652;2024-01-30T10:37:18;13.40;99.90
34837;DHT22;21053;50.848;4.652;2024-01-30T10:39:45;13.50;99.90
34837;DHT22;21053;50.848;4.652;2024-01-30T10:42:26;13.50;99.90
34837;DHT22;21053;50.848;4.652;2024-01-30T10:45:07;13.60;99.90
34837;DHT22;21053;50.848;4.652;2024-01-30T10:47:49;13.60;99.90
34837;DHT22;21053;50.848;4.652;2024-01-30T10:50:18;13.70;99.90
34837;DHT22;21053;50.848;4.652;2024-01-30T10:52:47;13.60;99.90
34837;DHT22;21053;50.848;4.652;2024-01-30T10:55:14;13.40;99.90
34837;DHT22;21053;50.848;4.652;2024-01-30T10:57:41;13.50;99.90
34837;DHT22;21053;50.848;4.652;2024-01-30T11:00:10;13.40;99.90
34837;DHT22;21053;50.848;4.652;2024-01-30T11:02:42;13.40;99.90
34837;DHT22;21053;50.848;4.652;2024-01-30T11:05:12;13.30;99.90
34837;DHT22;21053;50.848;4.652;2024-01-30T11:07:40;13.20;99.90
34837;DHT22;21053;50.848;4.652;2024-01-30T11:10:09;13.20;99.90
34837;DHT22;21053;50.848;4.652;2024-01-30T11:12:41;13.20;99.90
34837;DHT22;21053;50.848;4.652;2024-01-30T11:15:20;13.30;99.90
34837;DHT22;21053;50.848;4.652;2024-01-30T11:17:53;13.30;99.90
34837;DHT22;21053;50.848;4.652;2024-01-30T11:20:30;13.30;99.90
34837;DHT22;21053;50.848;4.652;2024-01-30T11:22:59;13.20;99.90
34837;DHT22;21053;50.848;4.652;2024-01-30T11:25:31;13.20;99.90
34837;DHT22;21053;50.848;4.652;2024-01-30T11:27:57;13.20;99.90
34837;DHT22;21053;50.848;4.652;2024-01-30T11:30:31;13.20;99.90
34837;DHT22;21053;50.848;4.652;2024-01-30T11:33:08;13.10;99.90
34837;DHT22;21053;50.848;4.652;2024-01-30T11:35:38;13.10;99.90
34837;DHT22;21053;50.848;4.652;2024-01-30T11:38:11;13.10;99.90
34837;DHT22;21053;50.848;4.652;2024-01-30T11:40:39;12.90;99.90
34837;DHT22;21053;50.848;4.652;2024-01-30T11:43:11;12.90;99.90
34837;DHT22;21053;50.848;4.652;2024-01-30T11:45:37;12.70;99.90
34837;DHT22;21053;50.848;4.652;2024-01-30T11:48:12;12.70;99.90
34837;DHT22;21053;50.848;4.652;2024-01-30T11:50:39;12.70;99.90
34837;DHT22;21053;50.848;4.652;2024-01-30T11:53:08;12.80;99.90
34837;DHT22;21053;50.848;4.652;2024-01-30T11:55:35;12.90;99.90
34837;DHT22;21053;50.848;4.652;2024-01-30T11:58:03;12.90;99.90
34837;DHT22;21053;50.848;4.652;2024-01-30T12:00:32;12.90;99.90
34837;DHT22;21053;50.848;4.652;2024-01-30T12:03:01;13.00;99.90
34837;DHT22;21053;50.848;4.652;2024-01-30T12:05:29;13.20;99.90
34837;DHT22;21053;50.848;4.652;2024-01-30T12:07:58;13.10;99.90
34837;DHT22;21053;50.848;4.652;2024-01-30T12:10:25;13.10;99.90
34837;DHT22;21053;50.848;4.652;2024-01-30T12:12:55;13.10;99.90
34837;DHT22;21053;50.848;4.652;2024-01-30T12:15:24;13.00;99.90
34837;DHT22;21053;50.848;4.652;2024-01-30T12:18:04;13.00;99.90
34837;DHT22;21053;50.848;4.652;2024-01-30T12:20:31;12.90;99.90
34837;DHT22;21053;50.848;4.652;2024-01-30T12:23:03;13.00;99.90
34837;DHT22;21053;50.848;4.652;2024-01-30T12:25:31;12.80;99.90
34837;DHT22;21053;50.848;4.652;2024-01-30T12:27:57;12.70;99.90
34837;DHT22;21053;50.848;4.652;2024-01-30T12:31:03;12.50;99.90
34837;DHT22;21053;50.848;4.652;2024-01-30T12:33:30;12.80;99.90
34837;DHT22;21053;50.848;4.652;2024-01-30T12:35:57;13.00;99.90
34837;DHT22;21053;50.848;4.652;2024-01-30T12:38:26;13.50;99.90
34837;DHT22;21053;50.848;4.652;2024-01-30T12:40:58;14.30;99.90
34837;DHT22;21053;50.848;4.652;2024-01-30T12:43:26;14.20;99.90
34837;DHT22;21053;50.848;4.652;2024-01-30T12:45:56;14.20;99.90
34837;DHT22;21053;50.848;4.652;2024-01-30T12:48:25;13.90;99.90
34837;DHT22;21053;50.848;4.652;2024-01-30T12:50:51;13.70;99.90
34837;DHT22;21053;50.848;4.652;2024-01-30T12:53:17;13.40;99.90
34837;DHT22;21053;50.848;4.652;2024-01-30T12:55:45;13.20;99.90
34837;DHT22;21053;50.848;4.652;2024-01-30T12:58:11;13.00;99.90
34837;DHT22;21053;50.848;4.652;2024-01-30T13:00:56;13.00;99.90
34837;DHT22;21053;50.848;4.652;2024-01-30T13:03:22;14.10;99.90
34837;DHT22;21053;50.848;4.652;2024-01-30T13:05:53;15.60;97.30
34837;DHT22;21053;50.848;4.652;2024-01-30T13:08:19;17.10;95.50
34837;DHT22;21053;50.848;4.652;2024-01-30T13:10:48;17.90;93.50
34837;DHT22;21053;50.848;4.652;2024-01-30T13:13:16;18.80;91.80
34837;DHT22;21053;50.848;4.652;2024-01-30T13:15:43;19.60;90.30
34837;DHT22;21053;50.848;4.652;2024-01-30T13:18:11;20.00;89.20
34837;DHT22;21053;50.848;4.652;2024-01-30T13:20:39;21.30;83.20
34837;DHT22;21053;50.848;4.652;2024-01-30T13:23:08;22.00;81.50
34837;DHT22;21053;50.848;4.652;2024-01-30T13:25:37;21.20;79.80
34837;DHT22;21053;50.848;4.652;2024-01-30T13:28:06;20.30;81.80
34837;DHT22;21053;50.848;4.652;2024-01-30T13:30:35;19.10;84.20
34837;DHT22;21053;50.848;4.652;2024-01-30T13:33:01;18.10;88.20
34837;DHT22;21053;50.848;4.652;2024-01-30T13:35:29;16.80;90.20
34837;DHT22;21053;50.848;4.652;2024-01-30T13:37:57;16.10;92.00
34837;DHT22;21053;50.848;4.652;2024-01-30T13:40:26;15.60;92.70
34837;DHT22;21053;50.848;4.652;2024-01-30T13:42:55;15.70;93.30
34837;DHT22;21053;50.848;4.652;2024-01-30T13:45:21;15.30;92.30
34837;DHT22;21053;50.848;4.652;2024-01-30T13:47:47;15.10;92.50
34837;DHT22;21053;50.848;4.652;2024-01-30T13:50:16;14.80;92.90
34837;DHT22;21053;50.848;4.652;2024-01-30T13:52:44;14.50;94.40
34837;DHT22;21053;50.848;4.652;2024-01-30T13:55:11;14.10;95.00
34837;DHT22;21053;50.848;4.652;2024-01-30T13:57:37;13.90;95.60
34837;DHT22;21053;50.848;4.652;2024-01-30T14:00:04;13.70;96.40
34837;DHT22;21053;50.848;4.652;2024-01-30T14:02:35;13.50;97.10
34837;DHT22;21053;50.848;4.652;2024-01-30T14:05:01;13.20;97.60
34837;DHT22;21053;50.848;4.652;2024-01-30T14:07:29;13.10;97.90
34837;DHT22;21053;50.848;4.652;2024-01-30T14:09:56;13.20;98.90
34837;DHT22;21053;50.848;4.652;2024-01-30T14:12:23;13.20;99.00
34837;DHT22;21053;50.848;4.652;2024-01-30T14:14:49;13.00;98.60
34837;DHT22;21053;50.848;4.652;2024-01-30T14:17:18;13.00;98.80
34837;DHT22;21053;50.848;4.652;2024-01-30T14:19:47;13.00;98.00
34837;DHT22;21053;50.848;4.652;2024-01-30T14:22:13;12.90;98.20
34837;DHT22;21053;50.848;4.652;2024-01-30T14:24:40;12.90;97.80
34837;DHT22;21053;50.848;4.652;2024-01-30T14:27:06;12.80;98.20
34837;DHT22;21053;50.848;4.652;2024-01-30T14:29:39;12.70;98.20
34837;DHT22;21053;50.848;4.652;2024-01-30T14:32:07;12.80;98.90
34837;DHT22;21053;50.848;4.652;2024-01-30T14:34:36;12.70;99.20
34837;DHT22;21053;50.848;4.652;2024-01-30T14:37:05;12.80;99.70
34837;DHT22;21053;50.848;4.652;2024-01-30T14:39:33;12.80;99.20
34837;DHT22;21053;50.848;4.652;2024-01-30T14:42:02;12.80;98.50
34837;DHT22;21053;50.848;4.652;2024-01-30T14:44:28;12.80;97.80
34837;DHT22;21053;50.848;4.652;2024-01-30T14:46:54;12.80;98.00
34837;DHT22;21053;50.848;4.652;2024-01-30T14:49:25;12.60;97.80
34837;DHT22;21053;50.848;4.652;2024-01-30T14:51:58;12.50;98.20
34837;DHT22;21053;50.848;4.652;2024-01-30T14:54:25;12.30;99.30
34837;DHT22;21053;50.848;4.652;2024-01-30T14:56:53;12.20;98.90
34837;DHT22;21053;50.848;4.652;2024-01-30T14:59:20;12.20;99.50
34837;DHT22;21053;50.848;4.652;2024-01-30T15:01:48;12.20;98.80
34837;DHT22;21053;50.848;4.652;2024-01-30T15:04:17;12.10;99.60
34837;DHT22;21053;50.848;4.652;2024-01-30T15:06:46;12.00;99.90
34837;DHT22;21053;50.848;4.652;2024-01-30T15:09:18;12.00;99.90
34837;DHT22;21053;50.848;4.652;2024-01-30T15:11:47;12.00;99.90
34837;DHT22;21053;50.848;4.652;2024-01-30T15:14:16;12.10;99.90
34837;DHT22;21053;50.848;4.652;2024-01-30T15:16:45;12.00;99.90
34837;DHT22;21053;50.848;4.652;2024-01-30T15:19:11;12.00;99.90
34837;DHT22;21053;50.848;4.652;2024-01-30T15:21:40;11.90;99.90
34837;DHT22;21053;50.848;4.652;2024-01-30T15:24:09;11.80;99.90
34837;DHT22;21053;50.848;4.652;2024-01-30T15:26:34;11.80;99.90
34837;DHT22;21053;50.848;4.652;2024-01-30T15:29:00;11.80;99.90
34837;DHT22;21053;50.848;4.652;2024-01-30T15:31:29;11.80;99.90
34837;DHT22;21053;50.848;4.652;2024-01-30T15:33:58;11.60;99.90
34837;DHT22;21053;50.848;4.652;2024-01-30T15:36:25;11.50;99.90
34837;DHT22;21053;50.848;4.652;2024-01-30T15:38:52;11.50;99.90
34837;DHT22;21053;50.848;4.652;2024-01-30T15:41:19;11.60;99.90
34837;DHT22;21053;50.848;4.652;2024-01-30T15:43:47;11.60;99.90
34837;DHT22;21053;50.848;4.652;2024-01-30T15:46:16;11.60;99.90
34837;DHT22;21053;50.848;4.652;2024-01-30T15:48:45;11.50;99.90